Time;durP1;ratioP1;P1;durP2;ratioP2;P2;SDS_P1;SDS_P2;PMS_P1;PMS_P2;Temp;Humidity;BMP_temperature;BMP_pressure;BME280_temperature;BME280_humidity;BME280_pressure;Samples;Min_cycle;Max_cycle;Signal;HPM_P1;HPM_P2
2023/03/21 00:02:18;;;;;;;4.07;2.20;;;12.90;99.90;;;;;;4910806;29;20035;-89
2023/03/21 00:04:44;;;;;;;4.85;2.30;;;12.90;99.90;;;;;;4929566;28;20034;-86
2023/03/21 00:07:10;;;;;;;5.05;2.13;;;13.00;99.90;;;;;;4915307;29;20038;-86
2023/03/21 00:09:35;;;;;;;4.57;2.40;;;13.00;99.90;;;;;;4938287;29;20035;-87
2023/03/21 00:12:01;;;;;;;3.97;2.17;;;12.90;99.90;;;;;;4918309;28;20174;-86
2023/03/21 00:14:29;;;;;;;4.15;2.22;;;12.90;99.90;;;;;;4928082;29;20507;-88
2023/03/21 00:16:55;;;;;;;4.43;2.22;;;12.90;99.90;;;;;;4931244;28;20032;-86
2023/03/21 00:19:23;;;;;;;5.20;2.50;;;12.90;99.90;;;;;;4928679;28;20070;-86
2023/03/21 00:21:51;;;;;;;3.93;2.30;;;12.90;99.90;;;;;;4929083;28;20633;-87
2023/03/21 00:24:17;;;;;;;4.80;2.15;;;12.90;99.90;;;;;;4932930;28;20034;-88
2023/03/21 00:26:43;;;;;;;6.10;2.50;;;12.90;99.90;;;;;;4904864;28;20300;-87
2023/03/21 00:29:08;;;;;;;4.38;2.17;;;12.90;99.90;;;;;;4931534;28;20045;-85
2023/03/21 00:31:34;;;;;;;3.90;2.30;;;12.80;99.90;;;;;;4935479;29;20027;-88
2023/03/21 00:34:00;;;;;;;3.80;2.10;;;12.80;99.90;;;;;;4945288;28;20030;-86
2023/03/21 00:36:26;;;;;;;3.87;2.37;;;12.80;99.90;;;;;;4911576;29;20246;-88
2023/03/21 00:38:52;;;;;;;5.03;2.38;;;12.90;99.90;;;;;;4931726;29;20098;-87
2023/03/21 00:41:18;;;;;;;4.22;2.13;;;12.80;99.90;;;;;;4910808;28;20032;-87
2023/03/21 00:43:45;;;;;;;5.03;2.30;;;12.80;99.90;;;;;;4934516;28;20386;-87
2023/03/21 00:46:11;;;;;;;4.45;2.05;;;12.80;99.90;;;;;;4916947;29;20048;-86
2023/03/21 00:48:36;;;;;;;4.93;2.72;;;12.80;99.90;;;;;;4934202;28;20678;-88
2023/03/21 00:51:12;;;;;;;4.60;2.13;;;12.80;99.90;;;;;;4928574;28;20038;-86
2023/03/21 00:53:37;;;;;;;4.10;2.20;;;12.80;99.90;;;;;;4929236;28;20033;-88
2023/03/21 00:56:03;;;;;;;4.18;2.30;;;12.80;99.90;;;;;;4898461;29;20035;-85
2023/03/21 00:58:29;;;;;;;4.53;2.35;;;12.80;99.90;;;;;;4935952;28;20584;-87
2023/03/21 01:00:56;;;;;;;3.37;2.00;;;12.80;99.90;;;;;;4917949;29;20037;-87
2023/03/21 01:03:25;;;;;;;5.13;2.38;;;12.80;99.90;;;;;;4935879;28;20394;-86
2023/03/21 01:06:04;;;;;;;3.63;2.17;;;12.80;99.90;;;;;;4933808;28;20031;-89
2023/03/21 01:08:33;;;;;;;3.83;2.13;;;12.70;99.90;;;;;;4927176;28;20305;-85
2023/03/21 01:11:05;;;;;;;5.45;2.50;;;12.70;99.90;;;;;;4932948;28;20554;-85
2023/03/21 01:13:32;;;;;;;5.03;2.30;;;12.70;99.90;;;;;;4927686;28;20233;-86
2023/03/21 01:15:58;;;;;;;4.45;2.13;;;12.70;99.90;;;;;;4925129;29;20070;-85
2023/03/21 01:18:27;;;;;;;6.30;2.25;;;12.70;99.90;;;;;;4947734;28;20313;-86
2023/03/21 01:20:55;;;;;;;4.07;2.37;;;12.70;99.90;;;;;;4914916;29;20038;-86
2023/03/21 01:23:21;;;;;;;3.80;2.05;;;12.70;99.90;;;;;;4927317;28;20031;-87
2023/03/21 01:25:48;;;;;;;5.47;2.42;;;12.70;99.90;;;;;;4930978;28;20086;-86
2023/03/21 01:28:15;;;;;;;4.47;2.38;;;12.70;99.90;;;;;;4914948;28;20154;-85
2023/03/21 01:30:45;;;;;;;5.32;2.30;;;12.70;99.90;;;;;;4936355;28;20604;-85
2023/03/21 01:33:10;;;;;;;5.07;2.50;;;12.70;99.90;;;;;;4915925;29;20030;-86
2023/03/21 01:35:36;;;;;;;4.57;2.13;;;12.70;99.90;;;;;;4928882;28;21018;-88
2023/03/21 01:38:02;;;;;;;4.93;2.47;;;12.70;99.90;;;;;;4929205;28;20039;-85
2023/03/21 01:40:29;;;;;;;3.63;2.30;;;12.70;99.90;;;;;;4915722;29;20235;-87
2023/03/21 01:42:55;;;;;;;4.85;2.30;;;12.70;99.90;;;;;;4938441;29;20381;-87
2023/03/21 01:45:59;;;;;;;5.18;2.38;;;12.70;99.90;;;;;;4900136;28;21262;-87
2023/03/21 01:48:27;;;;;;;3.87;1.83;;;12.70;99.90;;;;;;4930822;29;20258;-88
2023/03/21 01:50:54;;;;;;;4.68;2.25;;;12.60;99.90;;;;;;4939279;29;20023;-87
2023/03/21 01:53:28;;;;;;;3.85;1.83;;;12.70;99.90;;;;;;4919600;28;20376;-87
2023/03/21 01:56:21;;;;;;;4.82;2.35;;;12.70;99.90;;;;;;4932301;29;20027;-87
2023/03/21 01:58:47;;;;;;;3.40;2.10;;;12.70;99.90;;;;;;4936182;28;20047;-87
2023/03/21 02:01:14;;;;;;;5.40;2.40;;;12.70;99.90;;;;;;4911183;28;20157;-86
2023/03/21 02:03:49;;;;;;;4.68;2.08;;;12.70;99.90;;;;;;4923283;29;20031;-87
2023/03/21 02:06:30;;;;;;;4.72;2.13;;;12.70;99.90;;;;;;4920703;28;20258;-85
2023/03/21 02:09:03;;;;;;;4.65;2.10;;;12.70;99.90;;;;;;4929209;28;20148;-86
2023/03/21 02:11:31;;;;;;;4.97;2.30;;;12.70;99.90;;;;;;4905921;29;20727;-89
2023/03/21 02:13:57;;;;;;;4.37;2.40;;;12.70;99.90;;;;;;4917566;29;20507;-86
2023/03/21 02:16:54;;;;;;;3.97;2.00;;;12.70;99.90;;;;;;4910191;28;20636;-86
2023/03/21 02:19:41;;;;;;;4.07;2.25;;;12.70;99.90;;;;;;4928072;28;20138;-86
2023/03/21 02:22:25;;;;;;;3.85;2.00;;;12.70;99.90;;;;;;4927525;28;20745;-85
2023/03/21 02:25:10;;;;;;;3.78;2.03;;;12.70;99.90;;;;;;4928783;28;20935;-88
2023/03/21 02:27:56;;;;;;;3.43;1.93;;;12.70;99.90;;;;;;4929201;28;20043;-86
2023/03/21 02:30:59;;;;;;;6.20;2.22;;;12.70;99.90;;;;;;4931944;28;20264;-85
2023/03/21 02:33:48;;;;;;;4.43;1.90;;;12.70;99.90;;;;;;4900747;29;20158;-88
2023/03/21 02:36:27;;;;;;;4.90;2.40;;;12.70;99.90;;;;;;4918928;28;20098;-86
2023/03/21 02:39:03;;;;;;;3.58;1.95;;;12.70;99.90;;;;;;4928385;28;20190;-87
2023/03/21 02:41:40;;;;;;;4.50;2.13;;;12.70;99.90;;;;;;4911947;29;20252;-87
2023/03/21 02:44:44;;;;;;;3.80;2.03;;;12.70;99.90;;;;;;4928312;28;20098;-85
2023/03/21 02:47:21;;;;;;;4.18;2.05;;;12.70;99.90;;;;;;4896132;28;20297;-86
2023/03/21 02:50:11;;;;;;;3.72;2.30;;;12.70;99.90;;;;;;4930470;28;20160;-86
2023/03/21 02:52:40;;;;;;;4.30;2.05;;;12.70;99.90;;;;;;4925058;28;20560;-88
2023/03/21 02:55:14;;;;;;;4.33;2.20;;;12.70;99.90;;;;;;4936343;28;20027;-85
2023/03/21 02:57:45;;;;;;;4.13;2.20;;;12.70;99.90;;;;;;4920389;28;20529;-89
2023/03/21 03:00:17;;;;;;;5.55;2.20;;;12.70;99.90;;;;;;4915265;28;20038;-85
2023/03/21 03:02:44;;;;;;;6.93;2.67;;;12.70;99.90;;;;;;4913980;28;20457;-85
2023/03/21 03:05:21;;;;;;;4.82;2.22;;;12.70;99.90;;;;;;4928870;28;20118;-85
2023/03/21 03:07:53;;;;;;;4.93;2.03;;;12.70;99.90;;;;;;4941361;28;20025;-88
2023/03/21 03:10:32;;;;;;;4.72;2.20;;;12.70;99.90;;;;;;4932378;29;20078;-86
2023/03/21 03:13:16;;;;;;;4.75;2.20;;;12.70;99.90;;;;;;4942717;28;20053;-84
2023/03/21 03:16:24;;;;;;;5.10;1.90;;;12.70;99.90;;;;;;4934273;29;20034;-86
2023/03/21 03:18:52;;;;;;;3.95;1.90;;;12.80;99.90;;;;;;4915015;28;20348;-86
2023/03/21 03:21:30;;;;;;;4.10;2.17;;;12.80;99.90;;;;;;4912670;28;20651;-86
2023/03/21 03:23:58;;;;;;;3.63;1.90;;;12.80;99.90;;;;;;4928730;28;20047;-86
2023/03/21 03:26:33;;;;;;;3.55;1.83;;;12.80;99.90;;;;;;4919180;28;20145;-87
2023/03/21 03:29:06;;;;;;;4.25;2.00;;;12.80;99.90;;;;;;4930312;28;20031;-86
2023/03/21 03:31:55;;;;;;;3.53;1.92;;;12.80;99.90;;;;;;4915927;29;20313;-88
2023/03/21 03:34:25;;;;;;;3.23;1.53;;;12.80;99.90;;;;;;4914126;28;20118;-86
2023/03/21 03:36:56;;;;;;;3.08;1.88;;;12.80;99.90;;;;;;4933470;28;20058;-88
2023/03/21 03:39:34;;;;;;;5.22;2.33;;;12.80;99.90;;;;;;4926998;28;20265;-87
2023/03/21 03:42:17;;;;;;;3.92;1.77;;;12.80;99.90;;;;;;4935941;28;20396;-85
2023/03/21 03:44:43;;;;;;;3.25;1.80;;;12.80;99.90;;;;;;4941057;29;20054;-88
2023/03/21 03:47:14;;;;;;;4.43;1.90;;;12.90;99.90;;;;;;4930124;28;20043;-86
2023/03/21 03:50:11;;;;;;;4.30;2.00;;;12.80;99.90;;;;;;4918336;28;20042;-88
2023/03/21 03:53:01;;;;;;;4.28;2.03;;;12.80;99.90;;;;;;4935943;28;20109;-88
2023/03/21 03:55:33;;;;;;;3.83;1.63;;;12.90;99.90;;;;;;4932895;28;20453;-87
2023/03/21 03:58:00;;;;;;;3.05;1.80;;;12.80;99.90;;;;;;4939896;28;20078;-86
2023/03/21 04:00:26;;;;;;;3.47;1.70;;;12.80;99.90;;;;;;4931519;28;20034;-87
2023/03/21 04:02:53;;;;;;;3.60;1.75;;;12.80;99.90;;;;;;4948888;28;21505;-88
2023/03/21 04:05:20;;;;;;;4.10;1.80;;;12.80;99.90;;;;;;4917455;28;20556;-87
2023/03/21 04:07:49;;;;;;;3.53;1.70;;;12.80;99.90;;;;;;4938862;29;20031;-86
2023/03/21 04:10:16;;;;;;;3.40;1.75;;;12.90;99.90;;;;;;4929519;28;20041;-87
2023/03/21 04:12:41;;;;;;;3.70;1.73;;;12.80;99.90;;;;;;4922429;29;20409;-88
2023/03/21 04:15:07;;;;;;;4.32;2.08;;;12.80;99.90;;;;;;4929305;28;20031;-86
2023/03/21 04:17:33;;;;;;;4.90;1.90;;;12.80;99.90;;;;;;4929082;29;20131;-89
2023/03/21 04:19:59;;;;;;;3.80;1.80;;;12.80;99.90;;;;;;4936191;28;20023;-86
2023/03/21 04:22:25;;;;;;;4.10;1.65;;;12.90;99.90;;;;;;4934232;28;20032;-87
2023/03/21 04:24:52;;;;;;;3.50;1.67;;;12.80;99.90;;;;;;4930963;28;20035;-89
2023/03/21 04:27:18;;;;;;;3.85;1.65;;;12.80;99.90;;;;;;4917004;29;20484;-87
2023/03/21 04:29:43;;;;;;;3.00;1.48;;;12.80;99.90;;;;;;4923571;29;20008;-88
2023/03/21 04:32:15;;;;;;;3.80;1.90;;;12.90;99.90;;;;;;4924477;28;20540;-85
2023/03/21 04:34:42;;;;;;;2.80;1.87;;;12.80;99.90;;;;;;4937768;28;20054;-88
2023/03/21 04:37:10;;;;;;;3.03;1.73;;;12.90;99.90;;;;;;4913133;28;20701;-85
2023/03/21 04:39:37;;;;;;;3.20;1.95;;;12.90;99.90;;;;;;4932510;28;20074;-87
2023/03/21 04:42:03;;;;;;;3.38;1.70;;;12.90;99.90;;;;;;4938751;28;20941;-87
2023/03/21 04:44:28;;;;;;;3.53;1.53;;;12.90;99.90;;;;;;4928206;28;20047;-85
2023/03/21 04:46:54;;;;;;;4.07;1.67;;;12.90;99.90;;;;;;4911384;29;20031;-86
2023/03/21 04:49:20;;;;;;;4.72;1.88;;;12.90;99.90;;;;;;4915625;29;20523;-88
2023/03/21 04:51:46;;;;;;;3.70;1.60;;;12.90;99.90;;;;;;4915791;28;20214;-86
2023/03/21 04:54:12;;;;;;;4.15;1.90;;;12.90;99.90;;;;;;4935961;28;20038;-87
2023/03/21 04:56:38;;;;;;;4.38;1.75;;;12.90;99.90;;;;;;4930394;28;20034;-85
2023/03/21 04:59:13;;;;;;;4.43;1.60;;;12.90;99.90;;;;;;4924954;28;20086;-88
2023/03/21 05:01:40;;;;;;;6.47;1.85;;;12.90;99.90;;;;;;4928474;28;20527;-85
2023/03/21 05:04:06;;;;;;;3.28;1.65;;;12.90;99.90;;;;;;4945167;28;20032;-87
2023/03/21 05:06:32;;;;;;;3.20;1.60;;;12.90;99.90;;;;;;4917077;28;20062;-85
2023/03/21 05:09:04;;;;;;;4.15;1.75;;;12.90;99.90;;;;;;4935512;28;20383;-85
2023/03/21 05:11:31;;;;;;;3.70;1.63;;;13.00;99.90;;;;;;4926418;28;20019;-86
2023/03/21 05:13:57;;;;;;;5.13;1.75;;;13.00;99.90;;;;;;4932282;29;20149;-90
2023/03/21 05:16:25;;;;;;;4.13;1.90;;;13.00;99.90;;;;;;4936612;28;20451;-88
2023/03/21 05:18:54;;;;;;;3.63;1.80;;;13.00;99.90;;;;;;4927503;29;20184;-87
2023/03/21 05:21:21;;;;;;;3.72;1.92;;;13.00;99.90;;;;;;4936864;29;20462;-86
2023/03/21 05:23:53;;;;;;;4.00;1.80;;;13.00;99.90;;;;;;4912744;28;20343;-86
2023/03/21 05:26:19;;;;;;;5.07;2.20;;;13.00;99.90;;;;;;4914187;29;20038;-86
2023/03/21 05:28:46;;;;;;;4.03;1.73;;;13.00;99.90;;;;;;4932227;28;20633;-88
2023/03/21 05:31:15;;;;;;;3.38;1.98;;;13.00;99.90;;;;;;4920509;29;20023;-86
2023/03/21 05:33:41;;;;;;;4.85;2.25;;;13.00;99.90;;;;;;4922365;28;20382;-85
2023/03/21 05:36:08;;;;;;;6.00;2.20;;;13.00;99.90;;;;;;4951119;28;20610;-87
2023/03/21 05:38:34;;;;;;;4.38;2.00;;;13.00;99.90;;;;;;4916413;28;20031;-86
2023/03/21 05:41:00;;;;;;;4.95;2.38;;;13.00;99.90;;;;;;4937728;28;20249;-89
2023/03/21 05:43:26;;;;;;;4.78;2.20;;;13.00;99.90;;;;;;4930527;28;20513;-86
2023/03/21 05:45:51;;;;;;;3.27;2.00;;;13.00;99.90;;;;;;4936052;28;20070;-86
2023/03/21 05:48:18;;;;;;;3.70;2.17;;;13.00;99.90;;;;;;4939008;29;20034;-87
2023/03/21 05:50:43;;;;;;;5.22;2.13;;;13.00;99.90;;;;;;4926096;29;20030;-87
2023/03/21 05:53:09;;;;;;;6.13;2.40;;;13.00;99.90;;;;;;4900612;28;20397;-90
2023/03/21 05:55:35;;;;;;;5.53;2.58;;;13.00;99.90;;;;;;4919494;29;21956;-85
2023/03/21 05:58:01;;;;;;;4.30;2.00;;;13.00;99.90;;;;;;4930615;28;20019;-86
2023/03/21 06:00:27;;;;;;;3.83;2.08;;;13.00;99.90;;;;;;4920702;29;20165;-85
2023/03/21 06:02:53;;;;;;;4.73;2.23;;;13.00;99.90;;;;;;4900578;28;20089;-86
2023/03/21 06:05:18;;;;;;;4.80;2.33;;;13.00;99.90;;;;;;4925247;28;20031;-88
2023/03/21 06:07:44;;;;;;;4.82;2.17;;;13.00;99.90;;;;;;4912652;28;20055;-88
2023/03/21 06:10:10;;;;;;;4.90;2.27;;;13.00;99.90;;;;;;4929090;28;20405;-86
2023/03/21 06:12:36;;;;;;;4.28;2.15;;;13.00;99.90;;;;;;4928194;28;20489;-88
2023/03/21 06:15:04;;;;;;;3.92;2.20;;;13.00;99.90;;;;;;4937221;28;20046;-86
2023/03/21 06:17:31;;;;;;;3.80;2.20;;;13.00;99.90;;;;;;4933433;29;20390;-86
2023/03/21 06:19:57;;;;;;;5.32;2.55;;;13.00;99.90;;;;;;4927976;28;20366;-85
2023/03/21 06:22:22;;;;;;;5.88;3.30;;;13.00;99.90;;;;;;4889563;28;20569;-89
2023/03/21 06:24:48;;;;;;;5.33;2.40;;;13.00;99.90;;;;;;4921889;29;20035;-89
2023/03/21 06:27:14;;;;;;;5.07;2.50;;;12.90;99.90;;;;;;4918150;29;20540;-88
2023/03/21 06:29:40;;;;;;;5.20;2.30;;;12.90;99.90;;;;;;4915547;29;20035;-88
2023/03/21 06:32:06;;;;;;;4.83;2.40;;;12.80;99.90;;;;;;4909276;28;20032;-89
2023/03/21 06:34:32;;;;;;;4.20;2.28;;;12.70;99.90;;;;;;4941105;29;20063;-88
2023/03/21 06:36:58;;;;;;;3.63;2.00;;;12.70;99.90;;;;;;4917040;28;20528;-88
2023/03/21 06:39:24;;;;;;;4.67;1.90;;;12.60;99.90;;;;;;4909665;29;20028;-88
2023/03/21 06:41:53;;;;;;;5.90;2.35;;;12.60;99.90;;;;;;4926596;29;20124;-88
2023/03/21 06:44:20;;;;;;;5.65;2.20;;;12.60;99.90;;;;;;4972101;23;20155;-88
2023/03/21 06:46:47;;;;;;;4.45;2.20;;;12.60;99.90;;;;;;4953376;28;20026;-88
2023/03/21 06:49:14;;;;;;;5.18;2.60;;;12.50;99.90;;;;;;4948549;28;20039;-89
2023/03/21 06:51:40;;;;;;;6.23;2.53;;;12.50;99.90;;;;;;4932961;28;20041;-89
2023/03/21 06:54:06;;;;;;;5.18;2.50;;;12.40;99.90;;;;;;4923173;28;20165;-90
2023/03/21 06:56:32;;;;;;;4.78;2.70;;;12.40;99.90;;;;;;4961049;28;20049;-90
2023/03/21 06:58:57;;;;;;;4.30;2.33;;;12.40;99.90;;;;;;4932968;28;20432;-88
2023/03/21 07:01:26;;;;;;;4.40;2.40;;;12.30;99.90;;;;;;4953441;28;20038;-89
2023/03/21 07:03:55;;;;;;;5.13;2.37;;;12.30;99.90;;;;;;4958104;28;20174;-88
2023/03/21 07:06:21;;;;;;;5.47;2.60;;;12.30;99.90;;;;;;4951409;28;20658;-90
2023/03/21 07:08:47;;;;;;;4.90;2.45;;;12.30;99.90;;;;;;4925173;28;20161;-88
2023/03/21 07:11:13;;;;;;;4.57;2.53;;;12.30;99.90;;;;;;4949242;28;20214;-91
2023/03/21 07:13:39;;;;;;;5.80;2.57;;;12.30;99.90;;;;;;4983241;28;20342;-90
2023/03/21 07:16:05;;;;;;;5.53;2.47;;;12.30;99.90;;;;;;4943316;28;20304;-91
2023/03/21 07:18:32;;;;;;;5.15;2.53;;;12.30;99.90;;;;;;4953495;28;20267;-89
2023/03/21 07:20:59;;;;;;;5.53;2.97;;;12.30;99.90;;;;;;4948335;28;20018;-88
2023/03/21 07:23:26;;;;;;;4.93;2.53;;;12.30;99.90;;;;;;4933608;28;20023;-89
2023/03/21 07:25:52;;;;;;;5.22;2.40;;;12.20;99.90;;;;;;4962060;28;20264;-88
2023/03/21 07:28:19;;;;;;;6.18;2.78;;;12.30;99.90;;;;;;4952773;28;20289;-90
2023/03/21 07:30:51;;;;;;;5.32;2.70;;;12.20;99.90;;;;;;4946318;28;20046;-88
2023/03/21 07:33:16;;;;;;;4.70;2.55;;;12.20;99.90;;;;;;4946746;28;20580;-91
2023/03/21 07:35:42;;;;;;;6.73;2.70;;;12.20;99.90;;;;;;4983205;28;20121;-87
2023/03/21 07:38:08;;;;;;;6.70;2.65;;;12.30;99.90;;;;;;4945069;28;20594;-88
2023/03/21 07:40:34;;;;;;;3.90;2.60;;;12.30;99.90;;;;;;4946973;28;20029;-90
2023/03/21 07:43:00;;;;;;;5.20;2.40;;;12.30;99.90;;;;;;4946070;28;20015;-90
2023/03/21 07:45:27;;;;;;;6.50;2.63;;;12.30;99.90;;;;;;4964728;28;20023;-88
2023/03/21 07:47:53;;;;;;;5.40;2.67;;;12.30;99.90;;;;;;4938619;29;20104;-88
2023/03/21 07:50:20;;;;;;;4.53;2.53;;;12.40;99.90;;;;;;4949652;29;20237;-88
2023/03/21 07:52:46;;;;;;;6.50;2.67;;;12.30;99.90;;;;;;4934000;29;20039;-88
2023/03/21 07:55:12;;;;;;;4.47;2.40;;;12.40;99.90;;;;;;4938435;28;20039;-88
2023/03/21 07:57:39;;;;;;;7.13;2.60;;;12.40;99.90;;;;;;4948865;28;20138;-88
2023/03/21 08:00:06;;;;;;;5.25;2.95;;;12.40;99.90;;;;;;4966780;28;20317;-92
2023/03/21 08:02:31;;;;;;;6.47;2.80;;;12.50;99.90;;;;;;4937209;28;21136;-88
2023/03/21 08:04:57;;;;;;;5.73;3.00;;;12.60;99.90;;;;;;4957564;28;20063;-89
2023/03/21 08:07:23;;;;;;;4.85;2.95;;;12.70;99.90;;;;;;4946937;28;20051;-91
2023/03/21 08:09:49;;;;;;;5.53;3.03;;;12.80;99.90;;;;;;4913114;28;20066;-88
2023/03/21 08:12:15;;;;;;;6.00;2.67;;;12.80;99.90;;;;;;4934603;28;20602;-91
2023/03/21 08:14:41;;;;;;;6.78;2.95;;;12.90;99.90;;;;;;4956615;28;20237;-90
2023/03/21 08:17:08;;;;;;;4.37;2.33;;;12.90;99.90;;;;;;4939297;28;20061;-90
2023/03/21 08:19:34;;;;;;;5.80;2.50;;;13.00;99.90;;;;;;4931892;29;20031;-91
2023/03/21 08:22:01;;;;;;;4.55;2.40;;;13.00;99.90;;;;;;4938536;29;20122;-90
2023/03/21 08:24:28;;;;;;;8.45;2.65;;;13.00;99.90;;;;;;4958673;28;20046;-89
2023/03/21 08:26:54;;;;;;;5.50;3.15;;;13.00;99.90;;;;;;4904962;28;20035;-88
2023/03/21 08:29:20;;;;;;;4.33;2.57;;;13.00;99.90;;;;;;4925276;29;20258;-89
2023/03/21 08:31:46;;;;;;;4.22;2.10;;;13.00;99.90;;;;;;4927508;29;20020;-88
2023/03/21 08:34:12;;;;;;;5.93;2.30;;;13.00;99.90;;;;;;4930984;28;20028;-91
2023/03/21 08:36:38;;;;;;;4.23;2.07;;;13.00;99.90;;;;;;4943214;28;20058;-90
2023/03/21 08:39:05;;;;;;;3.42;2.03;;;13.00;99.90;;;;;;4926041;29;20035;-90
2023/03/21 08:41:32;;;;;;;3.65;1.83;;;13.00;99.90;;;;;;4898318;28;20023;-90
2023/03/21 08:43:57;;;;;;;3.28;1.80;;;13.00;99.90;;;;;;4962548;28;20055;-88
2023/03/21 08:46:24;;;;;;;2.57;1.70;;;13.10;99.90;;;;;;4943862;29;20042;-91
2023/03/21 08:48:49;;;;;;;2.55;1.73;;;13.00;99.90;;;;;;4933914;28;20036;-89
2023/03/21 08:51:16;;;;;;;4.07;1.85;;;13.10;99.90;;;;;;4924766;29;20289;-89
2023/03/21 08:53:42;;;;;;;3.70;2.00;;;13.10;99.90;;;;;;4939490;28;20050;-89
2023/03/21 08:56:10;;;;;;;2.92;1.70;;;13.10;99.90;;;;;;4909537;28;20581;-88
2023/03/21 08:58:36;;;;;;;4.05;2.17;;;13.20;99.90;;;;;;4923562;29;20106;-90
2023/03/21 09:01:02;;;;;;;2.95;1.80;;;13.20;99.90;;;;;;4931646;28;20122;-88
2023/03/21 09:03:29;;;;;;;4.63;2.35;;;13.20;99.90;;;;;;4912534;29;20163;-89
2023/03/21 09:05:55;;;;;;;4.70;2.30;;;13.30;99.90;;;;;;4937007;28;20038;-88
2023/03/21 09:08:22;;;;;;;3.33;2.00;;;13.30;99.90;;;;;;4938840;28;20141;-90
2023/03/21 09:10:55;;;;;;;3.50;2.08;;;13.40;99.90;;;;;;4933615;28;20473;-88
2023/03/21 09:13:21;;;;;;;3.17;1.85;;;13.40;99.90;;;;;;4924039;28;20059;-88
2023/03/21 09:15:47;;;;;;;3.50;1.80;;;13.50;99.90;;;;;;4936478;28;20590;-89
2023/03/21 09:18:15;;;;;;;3.77;2.10;;;13.50;99.90;;;;;;4930556;29;20023;-89
2023/03/21 09:20:45;;;;;;;3.20;2.00;;;13.60;99.90;;;;;;4930753;29;20031;-90
2023/03/21 09:23:12;;;;;;;5.05;2.10;;;13.70;99.90;;;;;;4934764;28;20245;-91
2023/03/21 09:25:43;;;;;;;4.65;2.03;;;13.70;99.90;;;;;;4937515;29;20560;-90
2023/03/21 09:28:10;;;;;;;4.33;2.10;;;13.80;99.90;;;;;;4914886;28;20331;-88
2023/03/21 09:30:36;;;;;;;5.90;2.22;;;13.90;99.90;;;;;;4933996;28;20031;-90
2023/03/21 09:33:07;;;;;;;5.47;2.60;;;13.90;99.90;;;;;;4946910;28;20438;-87
2023/03/21 09:35:33;;;;;;;5.75;2.22;;;14.00;99.90;;;;;;4918867;28;20026;-91
2023/03/21 09:38:00;;;;;;;4.30;2.25;;;14.00;99.90;;;;;;4918332;28;20038;-88
2023/03/21 09:40:51;;;;;;;4.50;2.40;;;14.10;99.90;;;;;;4936714;28;20410;-88
2023/03/21 09:43:33;;;;;;;4.65;2.50;;;14.10;99.90;;;;;;4926108;28;20035;-87
2023/03/21 09:46:34;;;;;;;4.40;2.30;;;14.10;99.90;;;;;;4920180;29;20444;-87
2023/03/21 09:49:08;;;;;;;4.50;2.38;;;14.20;99.90;;;;;;4919456;29;20111;-87
2023/03/21 09:51:40;;;;;;;4.30;2.42;;;14.10;99.90;;;;;;4944342;28;20030;-88
2023/03/21 09:54:38;;;;;;;5.97;2.50;;;14.10;99.90;;;;;;4915370;28;20162;-89
2023/03/21 09:57:19;;;;;;;5.82;2.47;;;14.10;99.90;;;;;;4910826;28;20209;-88
2023/03/21 09:59:49;;;;;;;5.60;2.53;;;14.20;99.90;;;;;;4937257;28;20111;-88
2023/03/21 10:02:18;;;;;;;5.25;2.65;;;14.20;99.90;;;;;;4930329;28;20130;-88
2023/03/21 10:04:45;;;;;;;5.28;2.78;;;14.30;99.90;;;;;;4950754;28;20050;-88
2023/03/21 10:07:16;;;;;;;5.07;2.27;;;14.30;99.90;;;;;;4921489;28;20256;-88
2023/03/21 10:09:44;;;;;;;4.22;2.38;;;14.40;99.90;;;;;;4930248;28;20592;-87
2023/03/21 10:12:21;;;;;;;3.90;2.05;;;14.50;99.90;;;;;;4929106;29;20031;-88
2023/03/21 10:14:50;;;;;;;4.38;2.28;;;14.60;99.90;;;;;;4911326;28;20118;-87
2023/03/21 10:17:53;;;;;;;4.47;2.80;;;14.70;99.90;;;;;;4930513;29;20413;-86
2023/03/21 10:20:25;;;;;;;5.13;2.60;;;14.80;99.90;;;;;;4916341;29;20546;-88
2023/03/21 10:22:54;;;;;;;4.43;2.47;;;14.90;99.90;;;;;;4922865;28;20276;-86
2023/03/21 10:25:28;;;;;;;5.13;2.50;;;15.00;99.90;;;;;;4934381;28;20941;-89
2023/03/21 10:27:54;;;;;;;4.68;2.25;;;15.00;99.90;;;;;;4945975;28;20383;-87
2023/03/21 10:30:34;;;;;;;5.10;2.10;;;15.10;99.90;;;;;;4895511;29;20532;-90
2023/03/21 10:33:03;;;;;;;4.28;2.20;;;15.10;99.90;;;;;;4945626;28;20042;-87
2023/03/21 10:35:35;;;;;;;3.45;1.95;;;15.20;99.90;;;;;;4934003;29;20026;-85
2023/03/21 10:38:02;;;;;;;5.22;2.33;;;15.30;99.90;;;;;;4924452;28;20027;-85
2023/03/21 10:40:27;;;;;;;3.83;2.00;;;15.40;99.90;;;;;;4920328;28;20019;-88
2023/03/21 10:43:33;;;;;;;4.35;2.35;;;15.40;99.90;;;;;;4933696;28;20046;-86
2023/03/21 10:46:10;;;;;;;3.88;2.15;;;15.40;99.90;;;;;;4907810;28;21416;-87
2023/03/21 10:48:39;;;;;;;4.40;2.28;;;15.50;99.90;;;;;;4936192;28;20020;-86
2023/03/21 10:51:07;;;;;;;3.70;2.07;;;15.60;99.90;;;;;;4919761;29;20422;-86
2023/03/21 10:53:44;;;;;;;4.65;2.15;;;15.60;99.90;;;;;;4940624;28;20086;-86
2023/03/21 10:56:11;;;;;;;4.22;2.20;;;15.70;99.90;;;;;;4915875;28;20124;-86
2023/03/21 10:58:45;;;;;;;3.92;2.20;;;15.80;99.90;;;;;;4938498;28;20075;-86
2023/03/21 11:01:24;;;;;;;4.10;2.03;;;15.80;99.90;;;;;;4915069;28;20405;-85
2023/03/21 11:03:56;;;;;;;3.23;2.00;;;15.90;99.90;;;;;;4937371;28;20034;-86
2023/03/21 11:06:29;;;;;;;6.90;2.40;;;16.00;99.90;;;;;;4958380;28;20129;-88
2023/03/21 11:09:12;;;;;;;4.85;2.08;;;16.10;99.90;;;;;;4929698;28;20035;-85
2023/03/21 11:11:51;;;;;;;3.92;2.10;;;16.20;99.90;;;;;;4940976;28;20027;-87
2023/03/21 11:14:34;;;;;;;3.03;1.95;;;16.30;99.90;;;;;;4939521;28;20599;-86
2023/03/21 11:17:00;;;;;;;3.57;1.93;;;16.50;99.90;;;;;;4910744;28;20045;-86
2023/03/21 11:19:32;;;;;;;3.85;2.20;;;16.70;99.90;;;;;;4936302;29;20493;-83
2023/03/21 11:22:04;;;;;;;3.95;2.30;;;16.90;99.90;;;;;;4952653;28;20039;-87
2023/03/21 11:24:31;;;;;;;4.30;2.67;;;16.90;99.90;;;;;;4956475;28;20038;-86
2023/03/21 11:27:00;;;;;;;4.27;2.70;;;17.00;99.90;;;;;;4928625;28;20023;-86
2023/03/21 11:29:29;;;;;;;4.65;3.10;;;17.00;99.90;;;;;;4943209;28;20094;-85
2023/03/21 11:32:01;;;;;;;5.47;2.97;;;17.10;99.90;;;;;;4899711;29;20031;-86
2023/03/21 11:34:37;;;;;;;4.95;2.75;;;17.20;99.90;;;;;;4943531;28;20413;-87
2023/03/21 11:37:03;;;;;;;4.57;2.70;;;17.30;99.90;;;;;;4936826;29;20035;-87
2023/03/21 11:39:39;;;;;;;3.90;2.43;;;17.50;99.90;;;;;;4942014;28;20025;-85
2023/03/21 11:42:30;;;;;;;4.05;2.50;;;17.60;99.90;;;;;;4932064;28;20462;-84
2023/03/21 11:45:18;;;;;;;4.43;2.40;;;17.80;99.90;;;;;;4938626;28;20043;-87
2023/03/21 11:47:45;;;;;;;5.22;2.80;;;18.00;99.90;;;;;;4935263;28;20066;-87
2023/03/21 11:50:31;;;;;;;4.10;2.33;;;18.10;99.90;;;;;;4937542;28;20237;-87
2023/03/21 11:53:00;;;;;;;6.00;2.58;;;18.10;99.90;;;;;;4921021;29;20030;-84
2023/03/21 11:55:45;;;;;;;4.60;2.63;;;18.00;99.90;;;;;;4936716;28;20036;-86
2023/03/21 11:58:24;;;;;;;5.03;2.30;;;18.10;99.90;;;;;;4911036;29;20217;-84
2023/03/21 12:00:58;;;;;;;4.55;2.42;;;18.00;99.90;;;;;;4935676;28;20660;-85
2023/03/21 12:03:42;;;;;;;4.17;2.33;;;17.90;99.90;;;;;;4926992;28;20027;-83
2023/03/21 12:06:23;;;;;;;4.25;2.30;;;17.80;99.90;;;;;;4931609;28;20474;-85
2023/03/21 12:09:09;;;;;;;5.43;2.78;;;17.90;99.90;;;;;;4950242;28;20071;-86
2023/03/21 12:11:36;;;;;;;4.45;2.58;;;18.10;99.90;;;;;;4939819;28;20539;-86
2023/03/21 12:14:29;;;;;;;5.80;2.50;;;18.30;99.90;;;;;;4939582;28;20033;-86
2023/03/21 12:17:17;;;;;;;3.73;2.30;;;18.50;99.90;;;;;;4921138;28;20469;-84
2023/03/21 12:20:10;;;;;;;4.25;2.30;;;18.80;99.90;;;;;;4950914;28;20035;-87
2023/03/21 12:22:53;;;;;;;3.42;2.10;;;19.00;99.90;;;;;;4922648;29;20511;-87
2023/03/21 12:25:30;;;;;;;4.22;2.50;;;19.30;99.90;;;;;;4915805;28;20081;-86
2023/03/21 12:28:07;;;;;;;2.97;2.40;;;19.50;99.90;;;;;;4945072;28;20366;-85
2023/03/21 12:30:43;;;;;;;3.50;2.17;;;19.60;99.90;;;;;;4933983;28;20676;-87
2023/03/21 12:33:29;;;;;;;4.82;2.50;;;19.60;99.90;;;;;;4905054;28;20528;-87
2023/03/21 12:36:33;;;;;;;3.53;2.30;;;19.50;99.90;;;;;;4931472;29;20027;-85
2023/03/21 12:39:26;;;;;;;3.42;2.20;;;19.40;99.50;;;;;;4934398;28;20567;-86
2023/03/21 12:42:26;;;;;;;4.65;2.60;;;19.30;98.60;;;;;;4951016;28;20030;-86
2023/03/21 12:45:13;;;;;;;5.17;2.53;;;19.20;97.60;;;;;;4911251;29;20409;-87
2023/03/21 12:47:45;;;;;;;5.10;2.47;;;18.90;97.60;;;;;;4932718;28;20043;-88
2023/03/21 12:50:36;;;;;;;5.63;2.75;;;18.80;99.90;;;;;;4895805;28;20050;-86
2023/03/21 12:53:22;;;;;;;5.22;2.65;;;18.60;99.70;;;;;;4950187;28;20130;-85
2023/03/21 12:55:48;;;;;;;4.15;2.55;;;18.60;99.10;;;;;;4950657;28;20031;-88
2023/03/21 12:58:17;;;;;;;3.63;2.80;;;18.50;99.90;;;;;;4924094;28;20395;-88
2023/03/21 13:00:48;;;;;;;3.78;2.40;;;18.50;99.90;;;;;;4914005;29;20093;-86
2023/03/21 13:03:36;;;;;;;4.00;2.58;;;18.40;99.90;;;;;;4916793;29;20505;-86
2023/03/21 13:06:04;;;;;;;3.20;2.25;;;18.40;99.90;;;;;;4907740;28;20030;-86
2023/03/21 13:08:45;;;;;;;3.92;2.63;;;18.40;99.90;;;;;;4919982;29;20016;-86
2023/03/21 13:11:23;;;;;;;3.93;2.20;;;18.40;99.90;;;;;;4949504;28;20767;-86